Time;durP1;ratioP1;P1;durP2;ratioP2;P2;SDS_P1;SDS_P2;PMS_P1;PMS_P2;Temp;Humidity;BMP_temperature;BMP_pressure;BME280_temperature;BME280_humidity;BME280_pressure;Samples;Min_cycle;Max_cycle;Signal;HPM_P1;HPM_P2
2023/02/26 00:02:11;;;;;;;7.88;4.38;;;;;;;;;;4954366;29;20387;-70
2023/02/26 00:04:37;;;;;;;6.82;4.80;;;;;;;;;;4954297;29;20339;-67
2023/02/26 00:07:04;;;;;;;7.90;4.78;;;;;;;;;;4953813;28;20046;-71
2023/02/26 00:09:30;;;;;;;8.50;5.20;;;;;;;;;;4953708;28;20035;-66
2023/02/26 00:11:57;;;;;;;9.98;6.07;;;;;;;;;;4955147;29;20037;-70
2023/02/26 00:14:23;;;;;;;13.85;8.50;;;;;;;;;;4955307;29;20043;-68
2023/02/26 00:16:55;;;;;;;9.25;6.10;;;;;;;;;;4955208;29;20459;-60
2023/02/26 00:19:21;;;;;;;5.63;4.47;;;;;;;;;;4955260;29;20538;-57
2023/02/26 00:21:48;;;;;;;6.05;3.80;;;;;;;;;;4954990;29;20027;-58
2023/02/26 00:24:14;;;;;;;6.20;3.50;;;;;;;;;;4954887;29;20043;-57
2023/02/26 00:26:40;;;;;;;7.95;5.10;;;;;;;;;;4954883;29;20050;-59
2023/02/26 06:09:50;;;;;;;4.35;2.55;;;;;;;;;;5468407;23;19913;-58
2023/02/26 06:12:16;;;;;;;5.25;3.28;;;;;;;;;;4952304;29;20041;-60
2023/02/26 06:14:42;;;;;;;4.43;2.90;;;;;;;;;;4953154;29;20553;-63
2023/02/26 06:17:08;;;;;;;3.70;2.70;;;;;;;;;;4953262;29;20110;-68
2023/02/26 06:19:34;;;;;;;3.45;2.17;;;;;;;;;;4953079;29;20043;-57
2023/02/26 06:22:00;;;;;;;5.05;2.60;;;;;;;;;;4952918;29;20035;-56
2023/02/26 06:24:26;;;;;;;3.72;2.70;;;;;;;;;;4952741;29;20035;-64
2023/02/26 06:26:52;;;;;;;3.80;2.83;;;;;;;;;;4953081;29;20035;-57
2023/02/26 06:29:19;;;;;;;4.53;3.03;;;;;;;;;;4952967;29;20031;-55
2023/02/26 06:31:46;;;;;;;4.13;2.78;;;;;;;;;;4952784;29;20023;-68
2023/02/26 06:34:12;;;;;;;6.28;3.30;;;;;;;;;;4951687;29;20071;-62
2023/02/26 06:36:38;;;;;;;8.65;4.07;;;;;;;;;;4951384;29;20066;-56
2023/02/26 06:39:04;;;;;;;8.95;4.78;;;;;;;;;;4951356;29;20077;-57
2023/02/26 06:41:30;;;;;;;8.40;4.78;;;;;;;;;;4952173;29;20023;-58
2023/02/26 06:43:56;;;;;;;10.38;5.63;;;;;;;;;;4951111;29;20478;-58
2023/02/26 06:46:22;;;;;;;20.98;8.75;;;;;;;;;;4951638;29;20145;-62
2023/02/26 06:48:48;;;;;;;14.18;7.22;;;;;;;;;;4952012;29;20058;-58
2023/02/26 06:51:14;;;;;;;18.77;7.50;;;;;;;;;;4951485;29;20023;-59
2023/02/26 06:53:40;;;;;;;16.23;7.78;;;;;;;;;;4952127;29;20380;-61
2023/02/26 06:56:06;;;;;;;18.05;8.77;;;;;;;;;;4952562;29;20046;-62
2023/02/26 06:58:32;;;;;;;14.07;6.93;;;;;;;;;;4952206;29;20031;-68
2023/02/26 07:00:58;;;;;;;14.32;7.57;;;;;;;;;;4952644;29;20568;-58
2023/02/26 07:03:24;;;;;;;14.40;7.22;;;;;;;;;;4952214;29;20364;-58
2023/02/26 07:05:50;;;;;;;13.15;7.22;;;;;;;;;;4952801;29;20110;-60
2023/02/26 07:08:16;;;;;;;15.32;7.15;;;;;;;;;;4952497;29;20074;-57
2023/02/26 07:10:46;;;;;;;24.42;11.32;;;;;;;;;;4950824;28;20051;-65
2023/02/26 07:13:12;;;;;;;26.50;12.57;;;;;;;;;;4949659;29;20132;-70
2023/02/26 07:15:38;;;;;;;12.60;6.78;;;;;;;;;;4950968;29;20229;-57
2023/02/26 07:18:04;;;;;;;9.75;5.78;;;;;;;;;;4951309;28;20034;-61
2023/02/26 07:20:30;;;;;;;10.05;6.10;;;;;;;;;;4955671;29;20031;-69
2023/02/26 07:22:56;;;;;;;9.60;5.90;;;;;;;;;;4954125;29;20038;-58
2023/02/26 07:25:23;;;;;;;8.57;5.63;;;;;;;;;;4955512;29;20035;-59
2023/02/26 07:27:49;;;;;;;9.50;5.65;;;;;;;;;;4955942;29;20086;-68
2023/02/26 07:30:15;;;;;;;12.88;8.13;;;;;;;;;;4956134;29;20023;-67
2023/02/26 07:32:41;;;;;;;17.58;10.23;;;;;;;;;;4955614;29;20037;-66
2023/02/26 07:35:07;;;;;;;17.10;10.45;;;;;;;;;;4937989;29;20060;-70
2023/02/26 07:37:33;;;;;;;17.33;10.98;;;;;;;;;;4955825;29;20638;-59
2023/02/26 07:39:59;;;;;;;14.70;9.07;;;;;;;;;;4955840;29;20079;-59
2023/02/26 07:42:26;;;;;;;14.70;9.48;;;;;;;;;;4955708;29;20372;-60
2023/02/26 07:44:52;;;;;;;13.73;7.55;;;;;;;;;;4955910;29;20035;-57
2023/02/26 07:47:18;;;;;;;13.40;8.10;;;;;;;;;;4955621;29;20050;-58
2023/02/26 07:49:44;;;;;;;13.45;8.73;;;;;;;;;;4955711;29;20031;-58
2023/02/26 07:52:10;;;;;;;12.00;7.93;;;;;;;;;;4955512;29;20493;-58
2023/02/26 07:54:36;;;;;;;11.40;7.40;;;;;;;;;;4971675;28;20501;-58
2023/02/26 07:57:03;;;;;;;13.60;8.35;;;;;;;;;;4974779;28;20077;-57
2023/02/26 07:59:29;;;;;;;11.98;7.03;;;;;;;;;;4975004;28;20098;-59
2023/02/26 08:01:55;;;;;;;11.98;7.30;;;;;;;;;;4975017;28;20050;-58
2023/02/26 08:04:21;;;;;;;15.20;8.80;;;;;;;;;;4974672;28;20034;-57
2023/02/26 08:06:47;;;;;;;17.25;9.13;;;;;;;;;;4975177;28;20105;-68
2023/02/26 08:09:13;;;;;;;13.52;8.48;;;;;;;;;;4974611;28;20055;-64
2023/02/26 08:11:42;;;;;;;16.15;9.00;;;;;;;;;;4974173;28;20109;-66
2023/02/26 08:14:08;;;;;;;15.38;8.48;;;;;;;;;;4974675;28;20070;-57
2023/02/26 08:16:34;;;;;;;18.02;9.73;;;;;;;;;;4974231;28;20031;-69
2023/02/26 08:19:00;;;;;;;21.48;11.43;;;;;;;;;;4974223;28;20039;-59
2023/02/26 08:21:26;;;;;;;17.77;10.30;;;;;;;;;;4973837;28;20039;-57
2023/02/26 08:23:53;;;;;;;17.50;10.25;;;;;;;;;;4974405;28;20414;-59
2023/02/26 08:26:19;;;;;;;16.33;8.23;;;;;;;;;;4974022;28;20493;-59
2023/02/26 08:28:46;;;;;;;16.55;9.43;;;;;;;;;;4974171;28;20058;-57
2023/02/26 08:31:12;;;;;;;13.35;7.35;;;;;;;;;;4968607;28;20043;-57
2023/02/26 08:33:38;;;;;;;10.60;6.25;;;;;;;;;;4954512;29;20033;-64
2023/02/26 08:36:05;;;;;;;12.05;7.20;;;;;;;;;;4954019;29;20150;-57
2023/02/26 08:38:31;;;;;;;14.48;7.13;;;;;;;;;;4953622;29;20035;-59
2023/02/26 08:40:57;;;;;;;10.63;6.22;;;;;;;;;;4954009;29;20046;-59
2023/02/26 08:43:24;;;;;;;11.88;7.20;;;;;;;;;;4954680;29;20106;-62
2023/02/26 08:45:51;;;;;;;6.78;4.63;;;;;;;;;;4956751;28;20034;-60
2023/02/26 08:48:17;;;;;;;10.25;5.93;;;;;;;;;;4970082;28;20489;-57
2023/02/26 08:50:43;;;;;;;12.43;6.70;;;;;;;;;;4974088;28;20027;-59
2023/02/26 08:53:09;;;;;;;11.93;5.38;;;;;;;;;;4974026;28;20023;-69
2023/02/26 08:55:35;;;;;;;15.05;7.53;;;;;;;;;;4973376;28;20035;-59
2023/02/26 08:58:02;;;;;;;20.25;8.65;;;;;;;;;;4973601;28;20382;-72
2023/02/26 09:00:28;;;;;;;13.65;8.13;;;;;;;;;;4973683;28;20049;-57
2023/02/26 09:02:54;;;;;;;13.73;8.50;;;;;;;;;;4973650;28;20097;-71
2023/02/26 09:05:20;;;;;;;18.88;10.40;;;;;;;;;;4973422;28;20463;-64
2023/02/26 09:07:46;;;;;;;17.55;10.70;;;;;;;;;;4973881;28;20027;-69
2023/02/26 09:10:12;;;;;;;19.85;11.98;;;;;;;;;;4973108;28;20063;-76
2023/02/26 09:12:38;;;;;;;16.73;10.20;;;;;;;;;;4959207;28;20039;-59
2023/02/26 09:15:05;;;;;;;15.13;9.73;;;;;;;;;;4954232;29;20035;-56
2023/02/26 09:17:31;;;;;;;20.05;11.27;;;;;;;;;;4954444;29;20019;-71
2023/02/26 09:19:57;;;;;;;18.17;11.38;;;;;;;;;;4954330;29;20062;-63
2023/02/26 09:22:23;;;;;;;23.15;14.00;;;;;;;;;;4954092;29;20027;-65
2023/02/26 09:24:50;;;;;;;27.02;14.45;;;;;;;;;;4953853;29;20030;-59
2023/02/26 09:27:16;;;;;;;17.85;10.25;;;;;;;;;;4953803;29;20110;-68
2023/02/26 09:29:42;;;;;;;19.90;10.18;;;;;;;;;;4953273;29;20163;-73
2023/02/26 09:32:08;;;;;;;10.90;6.60;;;;;;;;;;4954001;29;20526;-67
2023/02/26 09:34:35;;;;;;;15.13;8.60;;;;;;;;;;4955423;29;20122;-75
2023/02/26 09:37:03;;;;;;;18.20;11.85;;;;;;;;;;4954353;29;20020;-63
2023/02/26 09:39:32;;;;;;;17.30;9.85;;;;;;;;;;4953473;29;20063;-62
2023/02/26 09:42:00;;;;;;;14.45;9.27;;;;;;;;;;4954232;28;20066;-75
2023/02/26 09:44:28;;;;;;;20.10;11.32;;;;;;;;;;4953658;29;20038;-59
2023/02/26 09:46:54;;;;;;;23.38;13.50;;;;;;;;;;4953974;29;20035;-61
2023/02/26 09:49:38;;;;;;;24.95;13.68;;;;;;;;;;4952979;29;20023;-72
2023/02/26 09:52:14;;;;;;;21.25;12.63;;;;;;;;;;4953737;29;20506;-75
2023/02/26 09:54:46;;;;;;;13.60;8.15;;;;;;;;;;4953082;29;20031;-61
2023/02/26 09:57:12;;;;;;;;;;;;;;;;;;4960108;29;20027;-76
2023/02/26 09:59:38;;;;;;;15.25;7.35;;;;;;;;;;4953291;29;19910;-57
2023/02/26 10:02:15;;;;;;;16.17;9.70;;;;;;;;;;4953143;29;20530;-72
2023/02/26 10:04:41;;;;;;;15.73;9.18;;;;;;;;;;4954861;28;20039;-64
2023/02/26 10:07:16;;;;;;;10.98;6.43;;;;;;;;;;4967175;28;20039;-68
2023/02/26 10:09:54;;;;;;;14.65;8.25;;;;;;;;;;4952859;29;20036;-74
2023/02/26 10:12:33;;;;;;;15.85;10.07;;;;;;;;;;4953533;29;20070;-66
2023/02/26 10:15:02;;;;;;;14.93;9.23;;;;;;;;;;4952933;29;20067;-73
2023/02/26 10:17:34;;;;;;;12.82;8.27;;;;;;;;;;4952150;29;20032;-78
2023/02/26 10:20:03;;;;;;;13.52;8.13;;;;;;;;;;4953400;29;20027;-74
2023/02/26 10:22:44;;;;;;;11.55;6.70;;;;;;;;;;4952818;29;20019;-75
2023/02/26 10:25:22;;;;;;;10.50;6.25;;;;;;;;;;4952134;29;20063;-65
2023/02/26 10:28:08;;;;;;;11.18;7.05;;;;;;;;;;4952135;29;20063;-66
2023/02/26 10:30:43;;;;;;;12.63;7.50;;;;;;;;;;4933808;29;20087;-67
2023/02/26 10:33:21;;;;;;;10.30;7.03;;;;;;;;;;4943726;29;20028;-72
2023/02/26 10:35:51;;;;;;;11.27;6.82;;;;;;;;;;4951045;29;20380;-72
2023/02/26 10:38:20;;;;;;;9.95;6.60;;;;;;;;;;4951560;29;20023;-58
2023/02/26 10:40:48;;;;;;;12.52;8.15;;;;;;;;;;4954501;29;20398;-67
2023/02/26 10:43:22;;;;;;;13.13;8.68;;;;;;;;;;4961165;29;20095;-63
2023/02/26 10:45:56;;;;;;;17.17;11.77;;;;;;;;;;4963500;29;20055;-78
2023/02/26 10:48:25;;;;;;;17.00;11.43;;;;;;;;;;4954428;29;20035;-61
2023/02/26 10:50:52;;;;;;;20.10;13.23;;;;;;;;;;4952895;29;20102;-77
2023/02/26 10:53:19;;;;;;;13.90;9.70;;;;;;;;;;4952697;28;20023;-77
2023/02/26 10:55:55;;;;;;;16.88;11.15;;;;;;;;;;4956246;29;20151;-78
2023/02/26 10:58:25;;;;;;;18.30;11.65;;;;;;;;;;4956505;29;20031;-70
2023/02/26 11:00:53;;;;;;;22.05;14.02;;;;;;;;;;4956520;29;20035;-58
2023/02/26 11:03:19;;;;;;;21.95;13.95;;;;;;;;;;4958471;29;20482;-73
2023/02/26 11:05:45;;;;;;;18.27;13.18;;;;;;;;;;4956175;29;20451;-68
2023/02/26 11:08:17;;;;;;;26.23;15.60;;;;;;;;;;4956723;29;20032;-61
2023/02/26 11:11:04;;;;;;;23.90;16.02;;;;;;;;;;4940882;29;20047;-75
2023/02/26 11:13:31;;;;;;;44.70;25.50;;;;;;;;;;4957888;29;20031;-69
2023/02/26 11:16:00;;;;;;;54.50;29.65;;;;;;;;;;4938211;29;20134;-68
2023/02/26 11:18:29;;;;;;;41.10;24.85;;;;;;;;;;4956787;29;20085;-70
2023/02/26 11:20:56;;;;;;;40.50;23.35;;;;;;;;;;4956433;29;20027;-74
2023/02/26 11:23:24;;;;;;;30.30;19.20;;;;;;;;;;4956092;29;20053;-74
2023/02/26 11:26:01;;;;;;;33.05;20.17;;;;;;;;;;4954799;28;20506;-74
2023/02/26 11:28:44;;;;;;;28.45;17.13;;;;;;;;;;4957981;29;20075;-60
2023/02/26 11:31:11;;;;;;;25.15;17.55;;;;;;;;;;4962146;29;20019;-69
2023/02/26 11:33:39;;;;;;;26.73;16.52;;;;;;;;;;4959525;29;20023;-69
2023/02/26 11:36:20;;;;;;;26.27;17.63;;;;;;;;;;4954850;29;20039;-73
2023/02/26 11:38:54;;;;;;;28.95;18.73;;;;;;;;;;4955724;29;20038;-70
2023/02/26 11:41:22;;;;;;;31.52;19.38;;;;;;;;;;4955755;29;20046;-73
2023/02/26 11:44:00;;;;;;;37.20;19.67;;;;;;;;;;4956535;29;20039;-63
2023/02/26 11:46:27;;;;;;;31.92;19.58;;;;;;;;;;4958933;29;20106;-55
2023/02/26 11:48:54;;;;;;;31.83;20.35;;;;;;;;;;4954466;29;20518;-73
2023/02/26 11:51:24;;;;;;;30.00;19.67;;;;;;;;;;4958325;29;20031;-64
2023/02/26 11:53:54;;;;;;;29.38;19.10;;;;;;;;;;4952144;29;20063;-72
2023/02/26 11:56:26;;;;;;;27.90;19.48;;;;;;;;;;4940590;29;20135;-67
2023/02/26 11:58:56;;;;;;;31.33;17.80;;;;;;;;;;4953912;29;20034;-66
2023/02/26 12:01:26;;;;;;;30.33;19.63;;;;;;;;;;4943346;29;20027;-71
2023/02/26 12:03:52;;;;;;;32.88;20.02;;;;;;;;;;4951692;29;20069;-66
2023/02/26 12:06:26;;;;;;;28.00;17.67;;;;;;;;;;4957534;28;20015;-73
2023/02/26 12:08:52;;;;;;;24.88;17.92;;;;;;;;;;4954503;29;20019;-56
2023/02/26 12:11:18;;;;;;;30.85;19.05;;;;;;;;;;4952274;28;20074;-57
2023/02/26 12:13:59;;;;;;;29.58;18.98;;;;;;;;;;4955742;28;20093;-60
2023/02/26 12:16:25;;;;;;;31.02;19.27;;;;;;;;;;4950529;29;20067;-58
2023/02/26 12:18:54;;;;;;;32.70;19.17;;;;;;;;;;4953559;29;20110;-57
2023/02/26 12:21:29;;;;;;;30.05;20.60;;;;;;;;;;4951520;29;20086;-71
2023/02/26 12:24:08;;;;;;;25.50;17.55;;;;;;;;;;4951960;29;20031;-71
2023/02/26 12:26:44;;;;;;;32.13;19.58;;;;;;;;;;4952632;29;20027;-69
2023/02/26 12:29:10;;;;;;;29.75;19.20;;;;;;;;;;4951146;29;20050;-72
2023/02/26 12:31:54;;;;;;;31.25;18.83;;;;;;;;;;4955137;29;20020;-60
2023/02/26 12:34:44;;;;;;;30.33;19.13;;;;;;;;;;4936909;29;20027;-64
2023/02/26 12:37:29;;;;;;;32.90;20.85;;;;;;;;;;4877006;29;20377;-64
2023/02/26 12:39:55;;;;;;;35.53;19.83;;;;;;;;;;4876948;29;20085;-60
2023/02/26 14:20:21;;;;;;;59.33;32.67;;;;;;;;;;5110922;27;20116;-77
2023/02/26 14:22:50;;;;;;;51.60;27.33;;;;;;;;;;5089795;28;20386;-69
2023/02/26 14:25:30;;;;;;;59.78;33.22;;;;;;;;;;5106424;28;20328;-62
2023/02/26 14:28:15;;;;;;;62.20;32.20;;;;;;;;;;5107253;28;20023;-75
2023/02/26 14:30:46;;;;;;;59.30;32.60;;;;;;;;;;5107681;28;20020;-81
2023/02/26 14:33:17;;;;;;;52.55;30.35;;;;;;;;;;5107933;28;20028;-58
2023/02/26 14:35:49;;;;;;;61.58;33.58;;;;;;;;;;5107489;28;20115;-77
2023/02/26 14:38:26;;;;;;;67.88;37.42;;;;;;;;;;5116911;28;20036;-77
2023/02/26 14:40:57;;;;;;;69.43;38.92;;;;;;;;;;5108355;28;20043;-83
2023/02/26 14:43:42;;;;;;;66.32;38.22;;;;;;;;;;5108205;28;20028;-78
2023/02/26 14:46:09;;;;;;;61.42;35.75;;;;;;;;;;5107030;28;20036;-77
2023/02/26 14:48:35;;;;;;;57.05;33.03;;;;;;;;;;5111757;28;20044;-75
2023/02/26 14:51:02;;;;;;;46.40;29.98;;;;;;;;;;5108259;28;20023;-60
2023/02/26 14:53:47;;;;;;;50.22;29.90;;;;;;;;;;5107835;28;20113;-65
2023/02/26 14:56:22;;;;;;;48.67;29.70;;;;;;;;;;5099314;28;20494;-59
2023/02/26 14:58:59;;;;;;;45.80;27.88;;;;;;;;;;5100632;28;20489;-60
2023/02/26 15:01:25;;;;;;;44.83;27.80;;;;;;;;;;5101661;28;20648;-73
2023/02/26 15:04:04;;;;;;;43.40;27.85;;;;;;;;;;5103973;28;20016;-75
2023/02/26 15:06:48;;;;;;;46.30;28.52;;;;;;;;;;5104178;28;20035;-59
2023/02/26 15:09:24;;;;;;;44.15;27.95;;;;;;;;;;5105433;28;20032;-63
2023/02/26 15:11:53;;;;;;;58.03;34.55;;;;;;;;;;5086536;28;20025;-71
2023/02/26 15:14:27;;;;;;;61.30;37.00;;;;;;;;;;5085889;28;20410;-58
2023/02/26 15:17:25;;;;;;;56.25;34.20;;;;;;;;;;5086158;28;20039;-58
2023/02/26 15:20:12;;;;;;;50.38;32.15;;;;;;;;;;5019604;28;20599;-66
2023/02/26 15:22:44;;;;;;;56.88;34.00;;;;;;;;;;5023403;28;20064;-61
2023/02/26 15:25:23;;;;;;;52.10;32.95;;;;;;;;;;5024042;28;20676;-61
2023/02/26 15:27:49;;;;;;;54.15;32.97;;;;;;;;;;5023900;28;20539;-74
2023/02/26 15:30:15;;;;;;;51.30;32.60;;;;;;;;;;5018742;28;20165;-59
2023/02/26 15:32:41;;;;;;;136.38;71.10;;;;;;;;;;5009772;28;20029;-74
2023/02/26 15:35:15;;;;;;;50.33;33.17;;;;;;;;;;5009980;28;20033;-72
2023/02/26 15:37:41;;;;;;;45.55;30.15;;;;;;;;;;5010766;28;20493;-59
2023/02/26 15:40:07;;;;;;;51.13;31.40;;;;;;;;;;5011788;28;20109;-79
2023/02/26 15:42:37;;;;;;;51.75;33.53;;;;;;;;;;5011630;28;20045;-63
2023/02/26 15:45:05;;;;;;;55.30;33.83;;;;;;;;;;5011273;28;20030;-59
2023/02/26 15:47:32;;;;;;;52.13;32.28;;;;;;;;;;5011245;28;20049;-59
2023/02/26 15:49:58;;;;;;;47.42;30.52;;;;;;;;;;5010768;28;20470;-59
2023/02/26 15:52:25;;;;;;;45.92;30.35;;;;;;;;;;5011219;28;20057;-58
2023/02/26 15:54:53;;;;;;;47.55;31.00;;;;;;;;;;5027250;28;20754;-69
2023/02/26 15:57:20;;;;;;;47.90;30.52;;;;;;;;;;5073260;28;20052;-58
2023/02/26 15:59:47;;;;;;;47.50;30.42;;;;;;;;;;5073245;28;20091;-73
2023/02/26 16:02:15;;;;;;;49.83;31.63;;;;;;;;;;5073161;28;20527;-66
2023/02/26 16:04:42;;;;;;;48.92;30.42;;;;;;;;;;5073018;28;20119;-60
2023/02/26 16:07:12;;;;;;;44.75;29.30;;;;;;;;;;5073111;28;20028;-63
2023/02/26 16:09:44;;;;;;;46.75;29.50;;;;;;;;;;5072824;28;20032;-77
2023/02/26 16:12:10;;;;;;;;;;;;;;;;;;5073165;28;20024;-71
2023/02/26 16:14:38;;;;;;;46.60;28.52;;;;;;;;;;5072986;28;19916;-73
2023/02/26 16:17:05;;;;;;;45.03;29.50;;;;;;;;;;5072633;28;20031;-66
2023/02/26 16:19:32;;;;;;;47.92;30.85;;;;;;;;;;5058948;28;20129;-77
2023/02/26 16:22:08;;;;;;;41.40;27.20;;;;;;;;;;5043392;28;20434;-68
2023/02/26 16:24:34;;;;;;;43.45;27.35;;;;;;;;;;5051868;28;20044;-70
2023/02/26 16:27:03;;;;;;;35.20;24.20;;;;;;;;;;5052104;28;20021;-78
2023/02/26 16:29:32;;;;;;;31.20;21.92;;;;;;;;;;5052107;28;20477;-76
2023/02/26 16:31:59;;;;;;;33.10;21.95;;;;;;;;;;5052041;28;20082;-69
2023/02/26 16:34:34;;;;;;;32.33;23.20;;;;;;;;;;5051957;28;20024;-61
2023/02/26 16:37:10;;;;;;;24.58;18.38;;;;;;;;;;5052153;28;20032;-64
2023/02/26 16:39:42;;;;;;;30.73;20.85;;;;;;;;;;5050989;28;20032;-62
2023/02/26 16:42:10;;;;;;;33.42;22.23;;;;;;;;;;5050820;28;20124;-67
2023/02/26 16:44:39;;;;;;;31.58;21.60;;;;;;;;;;5051508;28;20025;-64
2023/02/26 16:47:05;;;;;;;30.05;20.90;;;;;;;;;;5051536;28;20037;-75
2023/02/26 16:49:32;;;;;;;29.13;20.63;;;;;;;;;;5051097;28;20389;-73
2023/02/26 16:51:59;;;;;;;33.65;21.65;;;;;;;;;;5051198;28;20029;-74
2023/02/26 16:54:36;;;;;;;32.65;21.73;;;;;;;;;;5051724;28;20396;-75
2023/02/26 16:57:08;;;;;;;35.05;22.80;;;;;;;;;;5051069;28;20025;-60
2023/02/26 16:59:37;;;;;;;37.10;24.95;;;;;;;;;;5051021;28;20091;-60
2023/02/26 17:02:05;;;;;;;43.47;29.45;;;;;;;;;;5051405;28;20051;-71
2023/02/26 17:04:34;;;;;;;43.45;29.60;;;;;;;;;;5051240;28;20025;-76
2023/02/26 17:07:01;;;;;;;24.88;16.48;;;;;;;;;;5052128;28;20116;-60
2023/02/26 17:09:33;;;;;;;34.08;23.63;;;;;;;;;;5049940;28;20032;-60
2023/02/26 17:12:11;;;;;;;33.17;21.35;;;;;;;;;;5049593;28;20082;-78
2023/02/26 17:14:39;;;;;;;35.22;22.35;;;;;;;;;;5050191;28;20028;-65
2023/02/26 17:17:06;;;;;;;23.05;15.82;;;;;;;;;;5048401;28;20029;-68
2023/02/26 17:19:32;;;;;;;22.45;14.35;;;;;;;;;;5049946;28;20061;-65
2023/02/26 17:21:59;;;;;;;27.90;17.38;;;;;;;;;;5050033;28;20019;-78
2023/02/26 17:24:35;;;;;;;27.67;18.98;;;;;;;;;;5033161;28;20033;-77
2023/02/26 17:27:03;;;;;;;22.02;14.70;;;;;;;;;;5050681;28;20029;-78
2023/02/26 17:29:36;;;;;;;22.45;15.57;;;;;;;;;;5050379;28;20108;-66
2023/02/26 17:32:02;;;;;;;26.02;17.77;;;;;;;;;;5051507;28;20033;-70
2023/02/26 17:34:28;;;;;;;31.20;22.17;;;;;;;;;;5050808;28;20044;-68
2023/02/26 17:36:56;;;;;;;28.58;19.45;;;;;;;;;;5050381;28;20033;-62
2023/02/26 17:39:22;;;;;;;35.92;22.60;;;;;;;;;;5034607;28;20037;-64
2023/02/26 17:41:49;;;;;;;29.17;18.58;;;;;;;;;;5040343;28;20075;-66
2023/02/26 17:44:15;;;;;;;28.48;18.80;;;;;;;;;;5043012;28;20549;-61
2023/02/26 17:46:41;;;;;;;29.10;20.65;;;;;;;;;;5039696;28;20487;-68
2023/02/26 17:49:08;;;;;;;28.67;18.95;;;;;;;;;;5042851;28;20128;-69
2023/02/26 17:51:34;;;;;;;25.40;17.65;;;;;;;;;;5034715;28;20032;-63
2023/02/26 17:54:00;;;;;;;25.00;16.05;;;;;;;;;;5045563;28;20025;-66
2023/02/26 17:56:27;;;;;;;22.83;15.85;;;;;;;;;;5042314;28;20480;-66
2023/02/26 17:58:54;;;;;;;20.02;11.23;;;;;;;;;;5037494;28;20041;-66
2023/02/26 18:01:22;;;;;;;26.75;17.73;;;;;;;;;;5048093;28;20036;-65
2023/02/26 18:03:48;;;;;;;23.58;15.40;;;;;;;;;;5033922;28;20483;-65
2023/02/26 18:06:14;;;;;;;18.08;12.35;;;;;;;;;;5040541;28;20427;-65
2023/02/26 18:08:41;;;;;;;24.05;15.80;;;;;;;;;;5047327;28;20104;-60
2023/02/26 18:11:10;;;;;;;20.23;12.85;;;;;;;;;;5039601;28;20064;-63
2023/02/26 18:13:36;;;;;;;25.17;15.30;;;;;;;;;;5023807;28;20025;-70
2023/02/26 18:16:03;;;;;;;21.02;13.27;;;;;;;;;;5045351;28;20029;-62
2023/02/26 18:18:29;;;;;;;18.50;11.68;;;;;;;;;;5043361;28;20045;-64
2023/02/26 18:20:55;;;;;;;15.00;10.77;;;;;;;;;;5038183;28;20029;-68
2023/02/26 18:23:21;;;;;;;17.33;10.40;;;;;;;;;;5046033;28;20487;-64
2023/02/26 18:25:48;;;;;;;16.08;10.75;;;;;;;;;;5039712;28;20049;-65
2023/02/26 18:28:16;;;;;;;18.15;11.68;;;;;;;;;;5044606;28;20836;-67
2023/02/26 18:30:43;;;;;;;17.25;11.98;;;;;;;;;;5041120;28;20097;-67
2023/02/26 18:33:15;;;;;;;18.02;12.40;;;;;;;;;;5046800;28;20551;-66
2023/02/26 18:35:44;;;;;;;;;;;;;;;;;;5040594;28;20040;-62
2023/02/26 18:38:17;;;;;;;13.75;7.22;;;;;;;;;;5047960;28;19970;-62
2023/02/26 18:40:44;;;;;;;12.85;9.18;;;;;;;;;;5041488;28;20730;-63
2023/02/26 18:43:13;;;;;;;14.65;9.27;;;;;;;;;;5039892;28;20017;-61
2023/02/26 18:45:40;;;;;;;13.55;8.20;;;;;;;;;;5039013;28;20123;-60
2023/02/26 18:48:08;;;;;;;13.55;9.02;;;;;;;;;;5040559;28;20029;-69
2023/02/26 18:50:34;;;;;;;13.85;8.65;;;;;;;;;;5043670;28;20040;-63
2023/02/26 18:53:00;;;;;;;11.68;8.50;;;;;;;;;;5049276;28;20033;-66
2023/02/26 18:55:26;;;;;;;9.48;5.53;;;;;;;;;;5044980;28;20025;-68
2023/02/26 18:57:52;;;;;;;12.35;7.97;;;;;;;;;;5040851;28;20044;-70
2023/02/26 19:00:20;;;;;;;19.40;10.57;;;;;;;;;;5040684;28;20049;-69
2023/02/26 19:02:46;;;;;;;15.00;9.43;;;;;;;;;;5044925;28;20049;-72
2023/02/26 19:05:15;;;;;;;12.88;8.02;;;;;;;;;;5039275;28;20025;-71
2023/02/26 19:07:41;;;;;;;12.27;7.82;;;;;;;;;;5050956;28;20017;-71
2023/02/26 19:10:09;;;;;;;13.13;8.10;;;;;;;;;;5043513;28;20018;-70
2023/02/26 19:12:35;;;;;;;10.95;7.80;;;;;;;;;;5041895;28;20080;-61
2023/02/26 19:15:01;;;;;;;32.90;20.02;;;;;;;;;;5044952;28;20034;-70
2023/02/26 19:17:27;;;;;;;20.23;12.13;;;;;;;;;;5050747;28;20021;-67
2023/02/26 19:19:53;;;;;;;17.15;10.85;;;;;;;;;;5053719;28;20067;-67
2023/02/26 19:22:19;;;;;;;15.18;10.18;;;;;;;;;;5052397;28;20538;-65
2023/02/26 19:24:46;;;;;;;15.75;10.57;;;;;;;;;;5053038;28;20033;-70
2023/02/26 19:27:12;;;;;;;14.52;9.85;;;;;;;;;;5053183;28;20021;-67
2023/02/26 19:29:39;;;;;;;16.95;11.82;;;;;;;;;;5052963;28;20088;-62
2023/02/26 19:32:05;;;;;;;17.65;11.75;;;;;;;;;;5053536;28;20096;-62
2023/02/26 19:34:35;;;;;;;15.65;9.65;;;;;;;;;;5053144;28;20029;-67
2023/02/26 19:37:01;;;;;;;22.20;13.52;;;;;;;;;;5041111;28;20079;-69
2023/02/26 19:39:30;;;;;;;12.18;8.35;;;;;;;;;;5042581;28;20502;-67
2023/02/26 19:41:56;;;;;;;15.93;10.75;;;;;;;;;;5022695;28;20023;-63
2023/02/26 19:44:23;;;;;;;24.70;15.77;;;;;;;;;;5040271;28;20025;-71
2023/02/26 19:46:50;;;;;;;14.75;9.48;;;;;;;;;;5047740;28;20029;-64
2023/02/26 19:49:16;;;;;;;13.38;9.35;;;;;;;;;;5044658;28;20427;-70
2023/02/26 19:51:42;;;;;;;14.93;8.43;;;;;;;;;;5038393;28;20060;-72
2023/02/26 19:54:09;;;;;;;15.73;9.85;;;;;;;;;;5033343;28;20033;-72
2023/02/26 19:56:35;;;;;;;13.70;9.43;;;;;;;;;;5032963;28;20036;-65
2023/02/26 19:59:04;;;;;;;13.57;9.60;;;;;;;;;;5033435;28;20568;-66
2023/02/26 20:01:30;;;;;;;13.35;9.10;;;;;;;;;;5052893;28;20033;-65
2023/02/26 20:03:56;;;;;;;14.48;9.77;;;;;;;;;;5052886;28;20040;-67
2023/02/26 20:06:22;;;;;;;15.90;10.25;;;;;;;;;;5052787;28;20059;-70
2023/02/26 20:08:48;;;;;;;17.05;11.10;;;;;;;;;;5052744;28;20021;-73
2023/02/26 20:11:14;;;;;;;17.80;11.57;;;;;;;;;;5052895;28;20369;-65
2023/02/26 20:13:40;;;;;;;18.00;11.40;;;;;;;;;;5053306;28;20024;-66
2023/02/26 20:16:07;;;;;;;16.05;10.63;;;;;;;;;;5052743;28;20033;-61
2023/02/26 20:18:34;;;;;;;17.35;10.10;;;;;;;;;;5052446;28;20057;-72
2023/02/26 20:21:01;;;;;;;14.90;9.82;;;;;;;;;;5052767;28;20040;-73
2023/02/26 20:23:27;;;;;;;16.90;9.75;;;;;;;;;;5034922;28;20033;-73
2023/02/26 20:25:54;;;;;;;15.43;9.63;;;;;;;;;;5052870;28;20466;-74
2023/02/26 20:28:21;;;;;;;16.58;10.80;;;;;;;;;;5051276;28;20029;-67
2023/02/26 20:30:47;;;;;;;16.17;10.13;;;;;;;;;;5052606;28;20374;-69
2023/02/26 20:33:13;;;;;;;14.68;10.40;;;;;;;;;;5052459;28;20090;-72
2023/02/26 20:35:44;;;;;;;16.30;10.30;;;;;;;;;;5052254;28;20048;-75
2023/02/26 20:38:10;;;;;;;14.73;9.80;;;;;;;;;;5052338;28;20029;-63
2023/02/26 20:40:37;;;;;;;13.52;9.25;;;;;;;;;;5052724;28;20029;-74
2023/02/26 20:43:03;;;;;;;14.63;9.38;;;;;;;;;;5034529;28;20099;-61
2023/02/26 20:45:29;;;;;;;12.88;8.77;;;;;;;;;;5053029;28;20033;-60
2023/02/26 20:47:55;;;;;;;13.65;9.23;;;;;;;;;;5051751;28;20029;-61
2023/02/26 20:50:21;;;;;;;16.30;10.60;;;;;;;;;;5052270;28;20029;-61
2023/02/26 20:52:47;;;;;;;14.18;9.93;;;;;;;;;;5051949;28;20071;-69
2023/02/26 20:55:14;;;;;;;15.27;10.48;;;;;;;;;;5051961;28;20029;-66
2023/02/26 20:57:40;;;;;;;18.35;11.75;;;;;;;;;;5052062;28;20040;-68
2023/02/26 21:00:10;;;;;;;16.38;10.77;;;;;;;;;;5051775;28;20029;-71
2023/02/26 21:02:37;;;;;;;13.35;9.32;;;;;;;;;;5051502;28;20021;-68
2023/02/26 21:05:04;;;;;;;12.88;9.45;;;;;;;;;;5033565;28;20078;-61
2023/02/26 21:07:30;;;;;;;15.20;9.80;;;;;;;;;;5051441;28;20021;-72
2023/02/26 21:09:56;;;;;;;14.88;10.20;;;;;;;;;;5052225;28;20031;-71
2023/02/26 21:12:23;;;;;;;14.23;9.93;;;;;;;;;;5051883;28;20472;-67
2023/02/26 21:14:51;;;;;;;14.93;10.32;;;;;;;;;;5051233;28;20093;-61
2023/02/26 21:17:17;;;;;;;15.40;11.10;;;;;;;;;;5049729;28;20064;-66
2023/02/26 21:19:43;;;;;;;15.35;10.95;;;;;;;;;;5050427;28;20048;-76
2023/02/26 21:22:10;;;;;;;17.27;10.60;;;;;;;;;;5051138;28;20037;-72
2023/02/26 21:24:36;;;;;;;13.25;9.27;;;;;;;;;;5051525;28;20033;-70
2023/02/26 21:27:02;;;;;;;12.77;8.90;;;;;;;;;;5051491;28;20120;-60
2023/02/26 21:29:28;;;;;;;16.27;9.98;;;;;;;;;;5050559;28;20031;-64
2023/02/26 21:31:56;;;;;;;15.90;9.70;;;;;;;;;;5051198;28;20029;-61
2023/02/26 21:34:23;;;;;;;14.65;9.95;;;;;;;;;;5051329;28;20052;-67
2023/02/26 21:36:49;;;;;;;15.85;10.45;;;;;;;;;;5051587;28;20029;-70
2023/02/26 21:39:15;;;;;;;14.60;10.05;;;;;;;;;;5051211;28;20127;-70
2023/02/26 21:41:41;;;;;;;16.77;10.57;;;;;;;;;;5051455;28;20476;-69
2023/02/26 21:44:08;;;;;;;15.43;10.48;;;;;;;;;;5049886;28;20421;-66
2023/02/26 21:46:34;;;;;;;15.55;9.80;;;;;;;;;;5049935;28;20112;-70
2023/02/26 21:49:00;;;;;;;16.60;10.30;;;;;;;;;;5050118;28;20041;-69
2023/02/26 21:51:27;;;;;;;14.88;9.48;;;;;;;;;;5050866;28;20025;-63